sensor_id;sensor_type;location;lat;lon;timestamp;P1;durP1;ratioP1;P2;durP2;ratioP2
7657;SDS011;8462;53.156;8.220;2022-07-23T00:00:17;3.77;;;2.00;;
7657;SDS011;8462;53.156;8.220;2022-07-23T00:02:45;3.00;;;2.23;;
7657;SDS011;8462;53.156;8.220;2022-07-23T00:05:12;4.20;;;2.30;;
7657;SDS011;8462;53.156;8.220;2022-07-23T00:07:39;4.03;;;1.80;;
7657;SDS011;8462;53.156;8.220;2022-07-23T00:10:07;5.27;;;2.27;;
7657;SDS011;8462;53.156;8.220;2022-07-23T00:12:35;4.73;;;2.60;;
7657;SDS011;8462;53.156;8.220;2022-07-23T00:15:02;4.27;;;2.10;;
7657;SDS011;8462;53.156;8.220;2022-07-23T00:17:30;3.97;;;2.00;;
7657;SDS011;8462;53.156;8.220;2022-07-23T00:19:59;2.30;;;1.40;;
7657;SDS011;8462;53.156;8.220;2022-07-23T00:22:26;3.30;;;1.90;;
7657;SDS011;8462;53.156;8.220;2022-07-23T00:24:54;1.63;;;1.40;;
7657;SDS011;8462;53.156;8.220;2022-07-23T00:27:21;4.67;;;1.70;;
7657;SDS011;8462;53.156;8.220;2022-07-23T00:29:48;5.40;;;1.73;;
7657;SDS011;8462;53.156;8.220;2022-07-23T00:32:15;3.17;;;2.00;;
7657;SDS011;8462;53.156;8.220;2022-07-23T00:34:42;2.37;;;1.73;;
7657;SDS011;8462;53.156;8.220;2022-07-23T00:37:10;2.70;;;1.77;;
7657;SDS011;8462;53.156;8.220;2022-07-23T00:39:37;4.53;;;1.80;;
7657;SDS011;8462;53.156;8.220;2022-07-23T00:42:04;4.80;;;1.67;;
7657;SDS011;8462;53.156;8.220;2022-07-23T00:44:31;3.10;;;2.00;;
7657;SDS011;8462;53.156;8.220;2022-07-23T00:46:58;3.70;;;1.87;;
7657;SDS011;8462;53.156;8.220;2022-07-23T00:49:26;2.77;;;1.80;;
7657;SDS011;8462;53.156;8.220;2022-07-23T00:51:54;4.27;;;1.87;;
7657;SDS011;8462;53.156;8.220;2022-07-23T00:54:25;5.00;;;1.83;;
7657;SDS011;8462;53.156;8.220;2022-07-23T00:56:52;4.60;;;2.47;;
7657;SDS011;8462;53.156;8.220;2022-07-23T00:59:19;3.20;;;2.17;;
7657;SDS011;8462;53.156;8.220;2022-07-23T01:01:47;4.70;;;2.47;;
7657;SDS011;8462;53.156;8.220;2022-07-23T01:04:14;3.03;;;1.83;;
7657;SDS011;8462;53.156;8.220;2022-07-23T01:06:41;3.63;;;1.80;;
7657;SDS011;8462;53.156;8.220;2022-07-23T01:09:10;4.60;;;1.80;;
7657;SDS011;8462;53.156;8.220;2022-07-23T01:11:38;4.57;;;1.90;;
7657;SDS011;8462;53.156;8.220;2022-07-23T01:14:09;5.87;;;2.10;;
7657;SDS011;8462;53.156;8.220;2022-07-23T01:16:40;2.23;;;1.57;;
7657;SDS011;8462;53.156;8.220;2022-07-23T01:19:07;4.03;;;1.80;;
7657;SDS011;8462;53.156;8.220;2022-07-23T01:21:35;3.17;;;2.00;;
7657;SDS011;8462;53.156;8.220;2022-07-23T01:24:05;2.73;;;1.93;;
7657;SDS011;8462;53.156;8.220;2022-07-23T01:29:09;5.67;;;2.93;;
7657;SDS011;8462;53.156;8.220;2022-07-23T01:31:37;6.17;;;2.30;;
7657;SDS011;8462;53.156;8.220;2022-07-23T01:34:04;2.43;;;1.97;;
7657;SDS011;8462;53.156;8.220;2022-07-23T01:36:32;4.23;;;2.07;;
7657;SDS011;8462;53.156;8.220;2022-07-23T01:38:59;3.17;;;2.13;;
7657;SDS011;8462;53.156;8.220;2022-07-23T01:41:28;3.50;;;2.67;;
7657;SDS011;8462;53.156;8.220;2022-07-23T01:43:55;3.97;;;2.13;;
7657;SDS011;8462;53.156;8.220;2022-07-23T01:46:23;3.63;;;2.20;;
7657;SDS011;8462;53.156;8.220;2022-07-23T01:48:50;3.87;;;2.30;;
7657;SDS011;8462;53.156;8.220;2022-07-23T01:51:33;3.47;;;1.90;;
7657;SDS011;8462;53.156;8.220;2022-07-23T01:54:07;4.27;;;2.30;;
7657;SDS011;8462;53.156;8.220;2022-07-23T01:56:36;3.17;;;2.00;;
7657;SDS011;8462;53.156;8.220;2022-07-23T01:59:03;6.73;;;2.10;;
7657;SDS011;8462;53.156;8.220;2022-07-23T02:01:30;3.07;;;1.83;;
7657;SDS011;8462;53.156;8.220;2022-07-23T02:03:57;4.00;;;2.50;;
7657;SDS011;8462;53.156;8.220;2022-07-23T02:06:24;2.53;;;1.77;;
7657;SDS011;8462;53.156;8.220;2022-07-23T02:08:50;4.93;;;2.20;;
7657;SDS011;8462;53.156;8.220;2022-07-23T02:11:17;2.90;;;2.40;;
7657;SDS011;8462;53.156;8.220;2022-07-23T02:13:46;3.87;;;2.77;;
7657;SDS011;8462;53.156;8.220;2022-07-23T02:16:12;4.17;;;2.50;;
7657;SDS011;8462;53.156;8.220;2022-07-23T02:18:39;4.57;;;2.23;;
7657;SDS011;8462;53.156;8.220;2022-07-23T02:21:06;5.20;;;2.87;;
7657;SDS011;8462;53.156;8.220;2022-07-23T02:23:33;4.53;;;2.13;;
7657;SDS011;8462;53.156;8.220;2022-07-23T02:26:00;3.40;;;2.23;;
7657;SDS011;8462;53.156;8.220;2022-07-23T02:28:28;5.13;;;3.50;;
7657;SDS011;8462;53.156;8.220;2022-07-23T02:30:57;6.10;;;2.53;;
7657;SDS011;8462;53.156;8.220;2022-07-23T02:33:24;3.40;;;2.20;;
7657;SDS011;8462;53.156;8.220;2022-07-23T02:35:50;4.73;;;2.90;;
7657;SDS011;8462;53.156;8.220;2022-07-23T02:38:19;3.13;;;2.50;;
7657;SDS011;8462;53.156;8.220;2022-07-23T02:40:46;7.77;;;3.07;;
7657;SDS011;8462;53.156;8.220;2022-07-23T02:43:13;6.07;;;2.80;;
7657;SDS011;8462;53.156;8.220;2022-07-23T02:45:40;5.37;;;2.87;;
7657;SDS011;8462;53.156;8.220;2022-07-23T02:48:10;6.57;;;2.60;;
7657;SDS011;8462;53.156;8.220;2022-07-23T02:50:38;4.47;;;3.00;;
7657;SDS011;8462;53.156;8.220;2022-07-23T02:53:05;6.00;;;2.53;;
7657;SDS011;8462;53.156;8.220;2022-07-23T02:55:32;6.07;;;3.50;;
7657;SDS011;8462;53.156;8.220;2022-07-23T02:58:01;4.93;;;3.27;;
7657;SDS011;8462;53.156;8.220;2022-07-23T03:00:28;7.90;;;3.13;;
7657;SDS011;8462;53.156;8.220;2022-07-23T03:02:54;4.63;;;2.70;;
7657;SDS011;8462;53.156;8.220;2022-07-23T03:05:23;5.50;;;3.17;;
7657;SDS011;8462;53.156;8.220;2022-07-23T03:07:50;3.20;;;2.60;;
7657;SDS011;8462;53.156;8.220;2022-07-23T03:10:17;7.23;;;3.30;;
7657;SDS011;8462;53.156;8.220;2022-07-23T03:12:44;5.53;;;2.83;;
7657;SDS011;8462;53.156;8.220;2022-07-23T03:15:11;5.00;;;2.97;;
7657;SDS011;8462;53.156;8.220;2022-07-23T03:17:38;3.17;;;2.80;;
7657;SDS011;8462;53.156;8.220;2022-07-23T03:20:05;5.50;;;3.00;;
7657;SDS011;8462;53.156;8.220;2022-07-23T03:22:34;6.23;;;3.30;;
7657;SDS011;8462;53.156;8.220;2022-07-23T03:25:02;6.47;;;2.77;;
7657;SDS011;8462;53.156;8.220;2022-07-23T03:27:33;3.03;;;2.73;;
7657;SDS011;8462;53.156;8.220;2022-07-23T03:30:00;3.20;;;2.87;;
7657;SDS011;8462;53.156;8.220;2022-07-23T03:32:28;5.10;;;3.10;;
7657;SDS011;8462;53.156;8.220;2022-07-23T03:34:56;4.50;;;2.60;;
7657;SDS011;8462;53.156;8.220;2022-07-23T03:37:23;6.43;;;2.80;;
7657;SDS011;8462;53.156;8.220;2022-07-23T03:39:51;5.23;;;3.03;;
7657;SDS011;8462;53.156;8.220;2022-07-23T03:42:19;4.17;;;3.40;;
7657;SDS011;8462;53.156;8.220;2022-07-23T03:44:45;5.90;;;3.30;;
7657;SDS011;8462;53.156;8.220;2022-07-23T03:47:12;6.97;;;3.83;;
7657;SDS011;8462;53.156;8.220;2022-07-23T03:49:39;4.00;;;3.17;;
7657;SDS011;8462;53.156;8.220;2022-07-23T03:52:06;7.00;;;3.40;;
7657;SDS011;8462;53.156;8.220;2022-07-23T03:54:33;4.40;;;3.20;;
7657;SDS011;8462;53.156;8.220;2022-07-23T03:57:02;6.37;;;3.67;;
7657;SDS011;8462;53.156;8.220;2022-07-23T03:59:29;6.93;;;3.80;;
7657;SDS011;8462;53.156;8.220;2022-07-23T04:01:56;6.97;;;3.40;;
7657;SDS011;8462;53.156;8.220;2022-07-23T04:04:24;3.57;;;3.03;;
7657;SDS011;8462;53.156;8.220;2022-07-23T04:06:51;7.43;;;3.57;;
7657;SDS011;8462;53.156;8.220;2022-07-23T04:09:18;5.67;;;4.13;;
7657;SDS011;8462;53.156;8.220;2022-07-23T04:11:45;6.43;;;3.80;;
7657;SDS011;8462;53.156;8.220;2022-07-23T04:14:13;4.57;;;3.77;;
7657;SDS011;8462;53.156;8.220;2022-07-23T04:16:40;7.53;;;4.23;;
7657;SDS011;8462;53.156;8.220;2022-07-23T04:19:07;4.13;;;3.30;;
7657;SDS011;8462;53.156;8.220;2022-07-23T04:21:44;4.67;;;3.80;;
7657;SDS011;8462;53.156;8.220;2022-07-23T04:24:11;6.43;;;4.57;;
7657;SDS011;8462;53.156;8.220;2022-07-23T04:26:39;5.37;;;4.27;;
7657;SDS011;8462;53.156;8.220;2022-07-23T04:29:06;4.53;;;3.63;;
7657;SDS011;8462;53.156;8.220;2022-07-23T04:31:35;6.83;;;3.73;;
7657;SDS011;8462;53.156;8.220;2022-07-23T04:34:02;5.40;;;4.00;;
7657;SDS011;8462;53.156;8.220;2022-07-23T04:36:29;5.23;;;3.43;;
7657;SDS011;8462;53.156;8.220;2022-07-23T04:38:56;8.00;;;3.73;;
7657;SDS011;8462;53.156;8.220;2022-07-23T04:41:24;4.50;;;3.77;;
7657;SDS011;8462;53.156;8.220;2022-07-23T04:43:51;6.40;;;4.00;;
7657;SDS011;8462;53.156;8.220;2022-07-23T04:46:18;5.77;;;3.60;;
7657;SDS011;8462;53.156;8.220;2022-07-23T04:48:49;6.93;;;4.03;;
7657;SDS011;8462;53.156;8.220;2022-07-23T04:51:16;6.27;;;4.10;;
7657;SDS011;8462;53.156;8.220;2022-07-23T04:53:44;6.27;;;3.83;;
7657;SDS011;8462;53.156;8.220;2022-07-23T04:56:11;7.30;;;3.67;;
7657;SDS011;8462;53.156;8.220;2022-07-23T04:58:38;4.83;;;3.80;;
7657;SDS011;8462;53.156;8.220;2022-07-23T05:01:05;5.90;;;4.30;;
7657;SDS011;8462;53.156;8.220;2022-07-23T05:03:34;9.27;;;4.00;;
7657;SDS011;8462;53.156;8.220;2022-07-23T05:06:02;5.30;;;4.10;;
7657;SDS011;8462;53.156;8.220;2022-07-23T05:08:30;10.43;;;4.10;;
7657;SDS011;8462;53.156;8.220;2022-07-23T05:10:58;4.63;;;3.53;;
7657;SDS011;8462;53.156;8.220;2022-07-23T05:13:24;7.80;;;4.03;;
7657;SDS011;8462;53.156;8.220;2022-07-23T05:15:52;4.53;;;3.43;;
7657;SDS011;8462;53.156;8.220;2022-07-23T05:18:20;4.77;;;3.50;;
7657;SDS011;8462;53.156;8.220;2022-07-23T05:20:47;3.70;;;3.23;;
7657;SDS011;8462;53.156;8.220;2022-07-23T05:23:19;3.53;;;2.43;;
7657;SDS011;8462;53.156;8.220;2022-07-23T05:25:47;5.53;;;2.80;;
7657;SDS011;8462;53.156;8.220;2022-07-23T05:28:15;2.40;;;2.20;;
7657;SDS011;8462;53.156;8.220;2022-07-23T05:30:42;2.47;;;2.00;;
7657;SDS011;8462;53.156;8.220;2022-07-23T05:33:12;3.22;;;2.20;;
7657;SDS011;8462;53.156;8.220;2022-07-23T05:35:40;3.15;;;2.30;;
7657;SDS011;8462;53.156;8.220;2022-07-23T05:38:17;3.75;;;2.10;;
7657;SDS011;8462;53.156;8.220;2022-07-23T05:40:47;4.43;;;2.30;;
7657;SDS011;8462;53.156;8.220;2022-07-23T05:43:14;5.03;;;2.22;;
7657;SDS011;8462;53.156;8.220;2022-07-23T05:45:41;3.63;;;2.35;;
7657;SDS011;8462;53.156;8.220;2022-07-23T05:48:08;2.65;;;2.00;;
7657;SDS011;8462;53.156;8.220;2022-07-23T05:50:43;4.85;;;1.98;;
7657;SDS011;8462;53.156;8.220;2022-07-23T05:53:21;2.20;;;1.90;;
7657;SDS011;8462;53.156;8.220;2022-07-23T05:56:04;2.13;;;1.92;;
7657;SDS011;8462;53.156;8.220;2022-07-23T05:58:31;2.00;;;1.45;;
7657;SDS011;8462;53.156;8.220;2022-07-23T06:00:58;3.22;;;1.77;;
7657;SDS011;8462;53.156;8.220;2022-07-23T06:03:28;2.97;;;1.42;;
7657;SDS011;8462;53.156;8.220;2022-07-23T06:05:55;3.00;;;1.60;;
7657;SDS011;8462;53.156;8.220;2022-07-23T06:08:24;2.42;;;1.80;;
7657;SDS011;8462;53.156;8.220;2022-07-23T06:10:51;2.28;;;1.17;;
7657;SDS011;8462;53.156;8.220;2022-07-23T06:13:19;1.42;;;1.20;;
7657;SDS011;8462;53.156;8.220;2022-07-23T06:15:45;1.55;;;1.25;;
7657;SDS011;8462;53.156;8.220;2022-07-23T06:18:13;3.42;;;1.98;;
7657;SDS011;8462;53.156;8.220;2022-07-23T06:20:40;3.63;;;1.50;;
7657;SDS011;8462;53.156;8.220;2022-07-23T06:23:07;3.70;;;1.70;;
7657;SDS011;8462;53.156;8.220;2022-07-23T06:25:35;2.15;;;1.70;;
7657;SDS011;8462;53.156;8.220;2022-07-23T06:28:03;2.63;;;1.87;;
7657;SDS011;8462;53.156;8.220;2022-07-23T06:30:30;1.77;;;1.63;;
7657;SDS011;8462;53.156;8.220;2022-07-23T06:32:57;2.43;;;1.80;;
7657;SDS011;8462;53.156;8.220;2022-07-23T06:35:24;2.03;;;1.83;;
7657;SDS011;8462;53.156;8.220;2022-07-23T06:37:51;3.30;;;2.20;;
7657;SDS011;8462;53.156;8.220;2022-07-23T06:40:18;5.17;;;1.90;;
7657;SDS011;8462;53.156;8.220;2022-07-23T06:42:47;5.03;;;2.53;;
7657;SDS011;8462;53.156;8.220;2022-07-23T06:45:20;4.10;;;2.40;;
7657;SDS011;8462;53.156;8.220;2022-07-23T06:47:47;4.27;;;2.10;;
7657;SDS011;8462;53.156;8.220;2022-07-23T06:50:14;4.00;;;2.23;;
7657;SDS011;8462;53.156;8.220;2022-07-23T06:52:41;3.63;;;2.20;;
7657;SDS011;8462;53.156;8.220;2022-07-23T06:55:08;3.03;;;2.17;;
7657;SDS011;8462;53.156;8.220;2022-07-23T06:57:37;3.67;;;2.00;;
7657;SDS011;8462;53.156;8.220;2022-07-23T07:00:07;1.80;;;1.70;;
7657;SDS011;8462;53.156;8.220;2022-07-23T07:02:35;6.80;;;2.20;;
7657;SDS011;8462;53.156;8.220;2022-07-23T07:05:02;3.50;;;1.73;;
7657;SDS011;8462;53.156;8.220;2022-07-23T07:07:29;4.33;;;2.00;;
7657;SDS011;8462;53.156;8.220;2022-07-23T07:09:56;2.93;;;1.67;;
7657;SDS011;8462;53.156;8.220;2022-07-23T07:12:23;3.07;;;1.90;;
7657;SDS011;8462;53.156;8.220;2022-07-23T07:14:50;5.30;;;2.10;;
7657;SDS011;8462;53.156;8.220;2022-07-23T07:17:19;2.40;;;1.83;;
7657;SDS011;8462;53.156;8.220;2022-07-23T07:19:46;3.67;;;2.10;;
7657;SDS011;8462;53.156;8.220;2022-07-23T07:22:14;4.50;;;1.73;;
7657;SDS011;8462;53.156;8.220;2022-07-23T07:24:41;3.90;;;1.90;;
7657;SDS011;8462;53.156;8.220;2022-07-23T07:27:07;3.50;;;2.00;;
7657;SDS011;8462;53.156;8.220;2022-07-23T07:29:35;2.37;;;1.67;;
7657;SDS011;8462;53.156;8.220;2022-07-23T07:32:02;3.23;;;1.80;;
7657;SDS011;8462;53.156;8.220;2022-07-23T07:34:31;2.10;;;1.90;;
7657;SDS011;8462;53.156;8.220;2022-07-23T07:36:58;5.30;;;1.63;;
7657;SDS011;8462;53.156;8.220;2022-07-23T07:39:25;3.43;;;1.73;;
7657;SDS011;8462;53.156;8.220;2022-07-23T07:41:52;2.57;;;2.00;;
7657;SDS011;8462;53.156;8.220;2022-07-23T07:44:18;2.80;;;1.77;;
7657;SDS011;8462;53.156;8.220;2022-07-23T07:46:45;4.23;;;2.30;;
7657;SDS011;8462;53.156;8.220;2022-07-23T07:49:12;2.40;;;1.87;;
7657;SDS011;8462;53.156;8.220;2022-07-23T07:51:40;2.13;;;1.70;;
7657;SDS011;8462;53.156;8.220;2022-07-23T07:54:07;3.47;;;2.00;;
7657;SDS011;8462;53.156;8.220;2022-07-23T07:56:34;4.77;;;2.30;;
7657;SDS011;8462;53.156;8.220;2022-07-23T07:59:01;2.80;;;1.77;;
7657;SDS011;8462;53.156;8.220;2022-07-23T08:01:28;4.53;;;2.00;;
7657;SDS011;8462;53.156;8.220;2022-07-23T08:03:55;3.90;;;2.10;;
7657;SDS011;8462;53.156;8.220;2022-07-23T08:06:22;1.77;;;1.30;;
7657;SDS011;8462;53.156;8.220;2022-07-23T08:08:50;3.20;;;1.40;;
7657;SDS011;8462;53.156;8.220;2022-07-23T08:11:17;3.10;;;1.60;;
7657;SDS011;8462;53.156;8.220;2022-07-23T08:13:44;3.07;;;1.60;;
7657;SDS011;8462;53.156;8.220;2022-07-23T08:16:11;1.97;;;1.33;;
7657;SDS011;8462;53.156;8.220;2022-07-23T08:18:38;2.97;;;1.83;;
7657;SDS011;8462;53.156;8.220;2022-07-23T08:21:04;4.63;;;1.80;;
7657;SDS011;8462;53.156;8.220;2022-07-23T08:23:31;2.47;;;1.27;;
7657;SDS011;8462;53.156;8.220;2022-07-23T08:26:01;2.77;;;1.30;;
7657;SDS011;8462;53.156;8.220;2022-07-23T08:28:28;4.77;;;1.20;;
7657;SDS011;8462;53.156;8.220;2022-07-23T08:30:58;3.63;;;1.33;;
7657;SDS011;8462;53.156;8.220;2022-07-23T08:33:26;1.90;;;1.00;;
7657;SDS011;8462;53.156;8.220;2022-07-23T08:35:53;3.37;;;1.83;;
7657;SDS011;8462;53.156;8.220;2022-07-23T08:38:21;2.10;;;1.10;;
7657;SDS011;8462;53.156;8.220;2022-07-23T08:40:50;2.50;;;1.30;;
7657;SDS011;8462;53.156;8.220;2022-07-23T08:43:20;1.90;;;1.17;;
7657;SDS011;8462;53.156;8.220;2022-07-23T08:45:49;2.83;;;1.33;;
7657;SDS011;8462;53.156;8.220;2022-07-23T08:48:18;1.93;;;0.90;;
7657;SDS011;8462;53.156;8.220;2022-07-23T08:50:47;2.10;;;1.00;;
7657;SDS011;8462;53.156;8.220;2022-07-23T08:53:16;1.07;;;0.77;;
7657;SDS011;8462;53.156;8.220;2022-07-23T08:55:44;2.00;;;1.20;;
7657;SDS011;8462;53.156;8.220;2022-07-23T08:58:12;1.73;;;1.00;;
7657;SDS011;8462;53.156;8.220;2022-07-23T09:00:41;1.83;;;1.00;;
7657;SDS011;8462;53.156;8.220;2022-07-23T09:03:11;3.30;;;1.00;;
7657;SDS011;8462;53.156;8.220;2022-07-23T09:05:42;1.63;;;0.70;;
7657;SDS011;8462;53.156;8.220;2022-07-23T09:08:09;1.57;;;0.60;;
7657;SDS011;8462;53.156;8.220;2022-07-23T09:10:44;1.07;;;0.67;;
7657;SDS011;8462;53.156;8.220;2022-07-23T09:13:32;1.00;;;0.60;;
7657;SDS011;8462;53.156;8.220;2022-07-23T09:16:04;0.97;;;0.80;;
7657;SDS011;8462;53.156;8.220;2022-07-23T09:18:37;0.80;;;0.60;;
7657;SDS011;8462;53.156;8.220;2022-07-23T09:21:14;4.03;;;1.00;;
7657;SDS011;8462;53.156;8.220;2022-07-23T09:23:46;1.43;;;0.63;;
7657;SDS011;8462;53.156;8.220;2022-07-23T09:26:19;2.20;;;0.67;;
7657;SDS011;8462;53.156;8.220;2022-07-23T09:28:55;0.93;;;0.73;;
7657;SDS011;8462;53.156;8.220;2022-07-23T09:31:27;3.20;;;0.60;;
7657;SDS011;8462;53.156;8.220;2022-07-23T09:36:48;1.57;;;0.87;;
7657;SDS011;8462;53.156;8.220;2022-07-23T09:39:16;2.23;;;1.00;;
7657;SDS011;8462;53.156;8.220;2022-07-23T09:41:51;1.73;;;0.80;;
7657;SDS011;8462;53.156;8.220;2022-07-23T09:44:19;1.87;;;1.10;;
7657;SDS011;8462;53.156;8.220;2022-07-23T09:46:48;2.83;;;0.77;;
7657;SDS011;8462;53.156;8.220;2022-07-23T09:49:17;2.10;;;0.80;;
7657;SDS011;8462;53.156;8.220;2022-07-23T09:51:50;0.80;;;0.60;;
7657;SDS011;8462;53.156;8.220;2022-07-23T09:54:27;2.53;;;0.67;;
7657;SDS011;8462;53.156;8.220;2022-07-23T09:56:57;0.90;;;0.70;;
7657;SDS011;8462;53.156;8.220;2022-07-23T09:59:26;1.53;;;1.40;;
7657;SDS011;8462;53.156;8.220;2022-07-23T10:01:56;1.90;;;0.70;;
7657;SDS011;8462;53.156;8.220;2022-07-23T10:04:25;0.60;;;0.60;;
7657;SDS011;8462;53.156;8.220;2022-07-23T10:07:14;0.60;;;0.60;;
7657;SDS011;8462;53.156;8.220;2022-07-23T10:10:05;0.90;;;0.70;;
7657;SDS011;8462;53.156;8.220;2022-07-23T10:12:52;2.63;;;0.80;;
7657;SDS011;8462;53.156;8.220;2022-07-23T10:15:49;2.27;;;0.60;;
7657;SDS011;8462;53.156;8.220;2022-07-23T10:18:18;0.83;;;0.60;;
7657;SDS011;8462;53.156;8.220;2022-07-23T10:20:45;1.00;;;0.70;;
7657;SDS011;8462;53.156;8.220;2022-07-23T10:23:14;0.70;;;0.60;;
7657;SDS011;8462;53.156;8.220;2022-07-23T10:25:49;1.17;;;0.70;;
7657;SDS011;8462;53.156;8.220;2022-07-23T10:31:20;1.60;;;1.30;;
7657;SDS011;8462;53.156;8.220;2022-07-23T10:34:02;1.10;;;0.60;;
7657;SDS011;8462;53.156;8.220;2022-07-23T10:36:37;2.27;;;0.80;;
7657;SDS011;8462;53.156;8.220;2022-07-23T10:39:11;5.50;;;3.47;;
7657;SDS011;8462;53.156;8.220;2022-07-23T10:41:42;0.80;;;0.70;;
7657;SDS011;8462;53.156;8.220;2022-07-23T10:44:10;1.83;;;0.77;;
7657;SDS011;8462;53.156;8.220;2022-07-23T10:46:54;1.13;;;0.80;;
7657;SDS011;8462;53.156;8.220;2022-07-23T10:49:40;1.83;;;0.90;;
7657;SDS011;8462;53.156;8.220;2022-07-23T10:52:23;6.37;;;2.73;;
7657;SDS011;8462;53.156;8.220;2022-07-23T10:54:53;1.50;;;0.73;;
7657;SDS011;8462;53.156;8.220;2022-07-23T10:57:21;0.70;;;0.60;;
7657;SDS011;8462;53.156;8.220;2022-07-23T11:02:38;2.77;;;0.67;;
7657;SDS011;8462;53.156;8.220;2022-07-23T11:05:09;0.73;;;0.73;;
7657;SDS011;8462;53.156;8.220;2022-07-23T11:07:38;1.17;;;0.80;;
7657;SDS011;8462;53.156;8.220;2022-07-23T11:10:40;0.57;;;0.53;;
7657;SDS011;8462;53.156;8.220;2022-07-23T11:16:03;0.67;;;0.60;;
7657;SDS011;8462;53.156;8.220;2022-07-23T11:18:52;0.87;;;0.80;;
7657;SDS011;8462;53.156;8.220;2022-07-23T11:24:09;1.10;;;0.80;;
7657;SDS011;8462;53.156;8.220;2022-07-23T11:26:45;0.47;;;0.43;;
7657;SDS011;8462;53.156;8.220;2022-07-23T11:32:04;0.70;;;0.70;;
7657;SDS011;8462;53.156;8.220;2022-07-23T11:34:32;1.50;;;0.90;;
7657;SDS011;8462;53.156;8.220;2022-07-23T11:37:02;1.23;;;1.13;;
7657;SDS011;8462;53.156;8.220;2022-07-23T11:39:30;2.77;;;0.90;;
7657;SDS011;8462;53.156;8.220;2022-07-23T11:41:59;1.37;;;0.90;;
7657;SDS011;8462;53.156;8.220;2022-07-23T11:44:31;0.83;;;0.77;;
7657;SDS011;8462;53.156;8.220;2022-07-23T11:47:00;1.73;;;1.20;;
7657;SDS011;8462;53.156;8.220;2022-07-23T11:49:29;1.87;;;1.00;;
7657;SDS011;8462;53.156;8.220;2022-07-23T11:52:04;1.17;;;0.80;;
7657;SDS011;8462;53.156;8.220;2022-07-23T11:54:32;0.60;;;0.60;;
7657;SDS011;8462;53.156;8.220;2022-07-23T11:57:01;0.60;;;0.60;;
7657;SDS011;8462;53.156;8.220;2022-07-23T11:59:30;1.03;;;0.60;;
7657;SDS011;8462;53.156;8.220;2022-07-23T12:01:59;0.87;;;0.80;;
7657;SDS011;8462;53.156;8.220;2022-07-23T12:04:36;0.67;;;0.60;;
7657;SDS011;8462;53.156;8.220;2022-07-23T12:07:08;0.60;;;0.60;;
7657;SDS011;8462;53.156;8.220;2022-07-23T12:09:52;0.67;;;0.60;;
7657;SDS011;8462;53.156;8.220;2022-07-23T12:12:20;1.83;;;0.80;;
7657;SDS011;8462;53.156;8.220;2022-07-23T12:14:48;0.57;;;0.57;;
7657;SDS011;8462;53.156;8.220;2022-07-23T12:17:16;1.03;;;0.80;;
7657;SDS011;8462;53.156;8.220;2022-07-23T12:19:43;1.87;;;0.97;;
7657;SDS011;8462;53.156;8.220;2022-07-23T12:22:11;1.60;;;0.90;;
7657;SDS011;8462;53.156;8.220;2022-07-23T12:24:58;2.33;;;0.90;;
7657;SDS011;8462;53.156;8.220;2022-07-23T12:27:26;1.70;;;0.80;;
7657;SDS011;8462;53.156;8.220;2022-07-23T12:29:53;1.90;;;1.37;;
7657;SDS011;8462;53.156;8.220;2022-07-23T12:32:21;2.93;;;1.20;;
7657;SDS011;8462;53.156;8.220;2022-07-23T12:34:49;0.60;;;0.60;;
7657;SDS011;8462;53.156;8.220;2022-07-23T12:37:31;0.50;;;0.50;;
7657;SDS011;8462;53.156;8.220;2022-07-23T12:42:55;1.97;;;0.70;;
7657;SDS011;8462;53.156;8.220;2022-07-23T12:45:24;0.70;;;0.60;;
7657;SDS011;8462;53.156;8.220;2022-07-23T12:47:53;1.38;;;0.75;;
7657;SDS011;8462;53.156;8.220;2022-07-23T12:50:35;0.77;;;0.50;;
7657;SDS011;8462;53.156;8.220;2022-07-23T12:53:06;1.00;;;0.63;;
7657;SDS011;8462;53.156;8.220;2022-07-23T12:55:36;1.90;;;0.90;;
7657;SDS011;8462;53.156;8.220;2022-07-23T12:58:04;0.60;;;0.60;;
7657;SDS011;8462;53.156;8.220;2022-07-23T13:03:26;1.50;;;0.80;;
7657;SDS011;8462;53.156;8.220;2022-07-23T13:05:55;2.42;;;1.52;;
7657;SDS011;8462;53.156;8.220;2022-07-23T13:08:24;2.38;;;1.27;;
7657;SDS011;8462;53.156;8.220;2022-07-23T13:10:53;0.70;;;0.60;;
7657;SDS011;8462;53.156;8.220;2022-07-23T13:13:20;0.50;;;0.50;;
7657;SDS011;8462;53.156;8.220;2022-07-23T13:15:49;1.13;;;0.90;;
7657;SDS011;8462;53.156;8.220;2022-07-23T13:18:16;6.40;;;1.08;;
7657;SDS011;8462;53.156;8.220;2022-07-23T13:20:46;1.73;;;0.63;;
7657;SDS011;8462;53.156;8.220;2022-07-23T13:23:13;2.05;;;0.60;;
7657;SDS011;8462;53.156;8.220;2022-07-23T13:25:42;0.68;;;0.68;;
7657;SDS011;8462;53.156;8.220;2022-07-23T13:28:11;2.93;;;0.90;;
7657;SDS011;8462;53.156;8.220;2022-07-23T13:30:38;1.80;;;0.70;;
7657;SDS011;8462;53.156;8.220;2022-07-23T13:33:06;2.70;;;0.80;;
7657;SDS011;8462;53.156;8.220;2022-07-23T13:35:33;0.87;;;0.70;;
7657;SDS011;8462;53.156;8.220;2022-07-23T13:38:01;0.80;;;0.80;;
7657;SDS011;8462;53.156;8.220;2022-07-23T13:40:28;4.30;;;1.10;;
7657;SDS011;8462;53.156;8.220;2022-07-23T13:42:57;0.80;;;0.70;;
7657;SDS011;8462;53.156;8.220;2022-07-23T13:45:24;0.73;;;0.60;;
7657;SDS011;8462;53.156;8.220;2022-07-23T13:47:51;3.33;;;0.83;;
7657;SDS011;8462;53.156;8.220;2022-07-23T13:50:18;0.90;;;0.70;;
7657;SDS011;8462;53.156;8.220;2022-07-23T13:52:45;0.80;;;0.60;;
7657;SDS011;8462;53.156;8.220;2022-07-23T13:55:12;0.80;;;0.60;;
7657;SDS011;8462;53.156;8.220;2022-07-23T13:57:39;0.80;;;0.80;;
7657;SDS011;8462;53.156;8.220;2022-07-23T14:00:08;0.90;;;0.80;;
7657;SDS011;8462;53.156;8.220;2022-07-23T14:02:37;1.27;;;0.70;;
7657;SDS011;8462;53.156;8.220;2022-07-23T14:05:06;0.80;;;0.80;;
7657;SDS011;8462;53.156;8.220;2022-07-23T14:07:34;1.13;;;1.10;;
7657;SDS011;8462;53.156;8.220;2022-07-23T14:10:02;0.70;;;0.70;;
7657;SDS011;8462;53.156;8.220;2022-07-23T14:12:30;2.00;;;0.80;;
7657;SDS011;8462;53.156;8.220;2022-07-23T14:14:58;1.67;;;0.83;;
7657;SDS011;8462;53.156;8.220;2022-07-23T14:17:26;1.33;;;0.90;;
7657;SDS011;8462;53.156;8.220;2022-07-23T14:19:53;3.07;;;0.90;;
7657;SDS011;8462;53.156;8.220;2022-07-23T14:22:20;1.20;;;0.77;;
7657;SDS011;8462;53.156;8.220;2022-07-23T14:24:47;1.23;;;0.80;;
7657;SDS011;8462;53.156;8.220;2022-07-23T14:27:14;0.50;;;0.50;;
7657;SDS011;8462;53.156;8.220;2022-07-23T14:29:41;1.80;;;0.80;;
7657;SDS011;8462;53.156;8.220;2022-07-23T14:32:08;0.83;;;0.80;;
7657;SDS011;8462;53.156;8.220;2022-07-23T14:34:36;2.55;;;0.85;;
7657;SDS011;8462;53.156;8.220;2022-07-23T14:37:03;1.63;;;0.90;;
7657;SDS011;8462;53.156;8.220;2022-07-23T14:39:30;3.30;;;0.80;;
7657;SDS011;8462;53.156;8.220;2022-07-23T14:41:57;0.70;;;0.70;;
7657;SDS011;8462;53.156;8.220;2022-07-23T14:44:24;0.83;;;0.63;;
7657;SDS011;8462;53.156;8.220;2022-07-23T14:49:22;1.67;;;0.70;;
7657;SDS011;8462;53.156;8.220;2022-07-23T14:51:50;2.43;;;1.00;;
7657;SDS011;8462;53.156;8.220;2022-07-23T14:54:17;1.43;;;1.00;;
7657;SDS011;8462;53.156;8.220;2022-07-23T14:56:45;2.60;;;1.23;;
7657;SDS011;8462;53.156;8.220;2022-07-23T14:59:12;1.63;;;0.93;;
7657;SDS011;8462;53.156;8.220;2022-07-23T15:01:39;1.97;;;0.90;;
7657;SDS011;8462;53.156;8.220;2022-07-23T15:04:07;1.57;;;1.00;;
7657;SDS011;8462;53.156;8.220;2022-07-23T15:06:33;2.97;;;1.27;;
7657;SDS011;8462;53.156;8.220;2022-07-23T15:09:02;3.00;;;1.83;;
7657;SDS011;8462;53.156;8.220;2022-07-23T15:11:29;1.00;;;0.90;;
7657;SDS011;8462;53.156;8.220;2022-07-23T15:13:59;1.20;;;0.80;;
7657;SDS011;8462;53.156;8.220;2022-07-23T15:16:26;0.77;;;0.73;;
7657;SDS011;8462;53.156;8.220;2022-07-23T15:18:53;2.10;;;1.00;;
7657;SDS011;8462;53.156;8.220;2022-07-23T15:21:20;0.90;;;0.80;;
7657;SDS011;8462;53.156;8.220;2022-07-23T15:23:47;1.87;;;1.00;;
7657;SDS011;8462;53.156;8.220;2022-07-23T15:26:16;1.83;;;1.00;;
7657;SDS011;8462;53.156;8.220;2022-07-23T15:28:43;0.80;;;0.80;;
7657;SDS011;8462;53.156;8.220;2022-07-23T15:31:21;1.17;;;1.00;;
7657;SDS011;8462;53.156;8.220;2022-07-23T15:33:57;0.93;;;0.93;;
7657;SDS011;8462;53.156;8.220;2022-07-23T15:36:24;1.27;;;0.97;;
7657;SDS011;8462;53.156;8.220;2022-07-23T15:38:51;1.10;;;0.90;;
7657;SDS011;8462;53.156;8.220;2022-07-23T15:41:25;1.20;;;0.87;;
7657;SDS011;8462;53.156;8.220;2022-07-23T15:43:51;1.50;;;1.20;;
7657;SDS011;8462;53.156;8.220;2022-07-23T15:49:12;2.47;;;1.20;;
7657;SDS011;8462;53.156;8.220;2022-07-23T15:51:50;1.37;;;1.17;;
7657;SDS011;8462;53.156;8.220;2022-07-23T15:54:27;2.80;;;1.20;;
7657;SDS011;8462;53.156;8.220;2022-07-23T15:56:55;2.33;;;1.20;;